sensor_id;sensor_type;location;lat;lon;timestamp;pressure;altitude;pressure_sealevel;temperature;humidity
9460;BME280;4768;42.664;23.240;2023-05-02T00:00:28;-9695.41;;;10.00;100.00
9460;BME280;4768;42.664;23.240;2023-05-02T00:02:55;-9696.97;;;10.05;100.00
9460;BME280;4768;42.664;23.240;2023-05-02T00:05:22;-9704.06;;;10.30;100.00
9460;BME280;4768;42.664;23.240;2023-05-02T00:07:50;-9704.78;;;10.32;100.00
9460;BME280;4768;42.664;23.240;2023-05-02T00:10:16;-9711.44;;;10.56;100.00
9460;BME280;4768;42.664;23.240;2023-05-02T00:12:43;-9709.31;;;10.48;100.00
9460;BME280;4768;42.664;23.240;2023-05-02T00:15:11;-9711.31;;;10.55;100.00
9460;BME280;4768;42.664;23.240;2023-05-02T00:17:39;-9697.41;;;10.07;100.00
9460;BME280;4768;42.664;23.240;2023-05-02T00:20:07;-9703.66;;;10.28;100.00
9460;BME280;4768;42.664;23.240;2023-05-02T00:22:34;-9733.75;;;11.33;100.00
9460;BME280;4768;42.664;23.240;2023-05-02T00:25:01;-9707.63;;;10.42;100.00
9460;BME280;4768;42.664;23.240;2023-05-02T00:27:28;-9676.13;;;9.32;100.00
9460;BME280;4768;42.664;23.240;2023-05-02T00:29:55;-9666.75;;;9.00;100.00
9460;BME280;4768;42.664;23.240;2023-05-02T00:32:24;-9699.25;;;10.13;100.00
9460;BME280;4768;42.664;23.240;2023-05-02T00:34:51;-9707.06;;;10.40;100.00
9460;BME280;4768;42.664;23.240;2023-05-02T00:37:18;-9684.06;;;9.60;100.00
9460;BME280;4768;42.664;23.240;2023-05-02T00:39:44;-9663.94;;;8.90;100.00
9460;BME280;4768;42.664;23.240;2023-05-02T00:42:11;-9690.88;;;9.84;100.00
9460;BME280;4768;42.664;23.240;2023-05-02T00:44:38;-9702.94;;;10.26;100.00
9460;BME280;4768;42.664;23.240;2023-05-02T00:47:04;-9713.28;;;10.62;100.00
9460;BME280;4768;42.664;23.240;2023-05-02T00:49:33;-9704.63;;;10.32;100.00
9460;BME280;4768;42.664;23.240;2023-05-02T00:51:59;-9681.50;;;9.51;100.00
9460;BME280;4768;42.664;23.240;2023-05-02T00:54:27;-9714.44;;;10.66;100.00
9460;BME280;4768;42.664;23.240;2023-05-02T00:56:54;-9721.38;;;10.90;100.00
9460;BME280;4768;42.664;23.240;2023-05-02T00:59:20;-9726.34;;;11.07;100.00
9460;BME280;4768;42.664;23.240;2023-05-02T01:01:54;-9716.41;;;10.73;100.00
9460;BME280;4768;42.664;23.240;2023-05-02T01:04:30;-9703.50;;;10.28;100.00
9460;BME280;4768;42.664;23.240;2023-05-02T01:07:17;-9701.66;;;10.21;100.00
9460;BME280;4768;42.664;23.240;2023-05-02T01:09:56;-9700.66;;;10.18;100.00
9460;BME280;4768;42.664;23.240;2023-05-02T01:12:27;-9696.13;;;10.02;100.00
9460;BME280;4768;42.664;23.240;2023-05-02T01:14:57;-9677.81;;;9.38;100.00
9460;BME280;4768;42.664;23.240;2023-05-02T01:17:26;-9682.50;;;9.55;100.00
9460;BME280;4768;42.664;23.240;2023-05-02T01:19:57;-9695.97;;;10.02;100.00
9460;BME280;4768;42.664;23.240;2023-05-02T01:22:27;-9706.06;;;10.37;100.00
9460;BME280;4768;42.664;23.240;2023-05-02T01:25:01;-9695.41;;;10.00;100.00
9460;BME280;4768;42.664;23.240;2023-05-02T01:27:38;-9679.81;;;9.45;100.00
9460;BME280;4768;42.664;23.240;2023-05-02T01:30:08;-9665.34;;;8.95;100.00
9460;BME280;4768;42.664;23.240;2023-05-02T01:32:39;-9669.31;;;9.09;100.00
9460;BME280;4768;42.664;23.240;2023-05-02T01:35:09;-9674.84;;;9.28;100.00
9460;BME280;4768;42.664;23.240;2023-05-02T01:37:38;-9673.72;;;9.24;100.00
9460;BME280;4768;42.664;23.240;2023-05-02T01:40:08;-9676.69;;;9.34;100.00
9460;BME280;4768;42.664;23.240;2023-05-02T01:42:35;-9678.09;;;9.39;100.00
9460;BME280;4768;42.664;23.240;2023-05-02T01:45:04;-9676.41;;;9.33;100.00
9460;BME280;4768;42.664;23.240;2023-05-02T01:47:34;-9670.16;;;9.12;100.00
9460;BME280;4768;42.664;23.240;2023-05-02T01:50:02;-9666.91;;;9.00;100.00
9460;BME280;4768;42.664;23.240;2023-05-02T01:52:31;-9665.47;;;8.95;100.00
9460;BME280;4768;42.664;23.240;2023-05-02T01:54:59;-9671.28;;;9.15;100.00
9460;BME280;4768;42.664;23.240;2023-05-02T01:57:26;-9665.19;;;8.94;100.00
9460;BME280;4768;42.664;23.240;2023-05-02T01:59:54;-9660.53;;;8.78;100.00
9460;BME280;4768;42.664;23.240;2023-05-02T02:02:23;-9657.69;;;8.68;100.00
9460;BME280;4768;42.664;23.240;2023-05-02T02:04:54;-9657.69;;;8.68;100.00
9460;BME280;4768;42.664;23.240;2023-05-02T02:07:21;-9655.56;;;8.61;100.00
9460;BME280;4768;42.664;23.240;2023-05-02T02:09:48;-9659.81;;;8.75;100.00
9460;BME280;4768;42.664;23.240;2023-05-02T02:12:24;-9659.09;;;8.73;100.00
9460;BME280;4768;42.664;23.240;2023-05-02T02:14:55;-9665.19;;;8.94;100.00
9460;BME280;4768;42.664;23.240;2023-05-02T02:17:25;-9667.59;;;9.03;100.00
9460;BME280;4768;42.664;23.240;2023-05-02T02:19:55;-9661.94;;;8.83;100.00
9460;BME280;4768;42.664;23.240;2023-05-02T02:22:23;-9666.06;;;8.97;100.00
9460;BME280;4768;42.664;23.240;2023-05-02T02:24:52;-9663.06;;;8.87;100.00
9460;BME280;4768;42.664;23.240;2023-05-02T02:27:20;-9676.13;;;9.32;100.00
9460;BME280;4768;42.664;23.240;2023-05-02T02:29:46;-9659.53;;;8.74;100.00
9460;BME280;4768;42.664;23.240;2023-05-02T02:32:13;-9648.47;;;8.36;100.00
9460;BME280;4768;42.664;23.240;2023-05-02T02:34:40;-9637.28;;;7.97;100.00
9460;BME280;4768;42.664;23.240;2023-05-02T02:37:14;-9635.28;;;7.90;100.00
9460;BME280;4768;42.664;23.240;2023-05-02T02:39:49;-9637.00;;;7.96;100.00
9460;BME280;4768;42.664;23.240;2023-05-02T02:42:26;-9631.47;;;7.76;100.00
9460;BME280;4768;42.664;23.240;2023-05-02T02:45:04;-9628.91;;;7.68;100.00
9460;BME280;4768;42.664;23.240;2023-05-02T02:47:41;-9625.09;;;7.54;100.00
9460;BME280;4768;42.664;23.240;2023-05-02T02:50:13;-9626.94;;;7.61;100.00
9460;BME280;4768;42.664;23.240;2023-05-02T02:52:49;-9637.56;;;7.98;100.00
9460;BME280;4768;42.664;23.240;2023-05-02T02:55:25;-9629.06;;;7.68;100.00
9460;BME280;4768;42.664;23.240;2023-05-02T02:57:59;-9625.38;;;7.55;100.00
9460;BME280;4768;42.664;23.240;2023-05-02T03:00:28;-9627.22;;;7.62;100.00
9460;BME280;4768;42.664;23.240;2023-05-02T03:02:55;-9621.41;;;7.41;100.00
9460;BME280;4768;42.664;23.240;2023-05-02T03:05:22;-9622.81;;;7.46;100.00
9460;BME280;4768;42.664;23.240;2023-05-02T03:07:51;-9618.88;;;7.32;100.00
9460;BME280;4768;42.664;23.240;2023-05-02T03:10:18;-9627.78;;;7.64;100.00
9460;BME280;4768;42.664;23.240;2023-05-02T03:12:45;-9627.94;;;7.64;100.00
9460;BME280;4768;42.664;23.240;2023-05-02T03:15:22;-9625.81;;;7.57;100.00
9460;BME280;4768;42.664;23.240;2023-05-02T03:17:50;-9626.09;;;7.58;100.00
9460;BME280;4768;42.664;23.240;2023-05-02T03:20:17;-9637.28;;;7.97;100.00
9460;BME280;4768;42.664;23.240;2023-05-02T03:22:44;-9641.69;;;8.12;100.00
9460;BME280;4768;42.664;23.240;2023-05-02T03:25:12;-9635.44;;;7.90;100.00
9460;BME280;4768;42.664;23.240;2023-05-02T03:27:38;-9638.28;;;8.00;100.00
9460;BME280;4768;42.664;23.240;2023-05-02T03:30:07;-9639.53;;;8.05;100.00
9460;BME280;4768;42.664;23.240;2023-05-02T03:32:34;-9646.50;;;8.29;100.00
9460;BME280;4768;42.664;23.240;2023-05-02T03:35:00;-9640.09;;;8.07;100.00
9460;BME280;4768;42.664;23.240;2023-05-02T03:37:27;-9635.44;;;7.90;100.00
9460;BME280;4768;42.664;23.240;2023-05-02T03:39:54;-9638.97;;;8.03;100.00
9460;BME280;4768;42.664;23.240;2023-05-02T03:42:23;-9645.50;;;8.25;100.00
9460;BME280;4768;42.664;23.240;2023-05-02T03:44:51;-9645.50;;;8.25;100.00
9460;BME280;4768;42.664;23.240;2023-05-02T03:47:18;-9650.59;;;8.43;100.00
9460;BME280;4768;42.664;23.240;2023-05-02T03:49:45;-9650.47;;;8.43;100.00
9460;BME280;4768;42.664;23.240;2023-05-02T03:52:12;-9658.81;;;8.72;100.00
9460;BME280;4768;42.664;23.240;2023-05-02T03:54:38;-9665.63;;;8.96;100.00
9460;BME280;4768;42.664;23.240;2023-05-02T03:57:07;-9679.66;;;9.45;100.00
9460;BME280;4768;42.664;23.240;2023-05-02T03:59:35;-9690.31;;;9.82;100.00
9460;BME280;4768;42.664;23.240;2023-05-02T04:02:05;-9697.81;;;10.08;100.00
9460;BME280;4768;42.664;23.240;2023-05-02T04:04:33;-9702.09;;;10.23;100.00
9460;BME280;4768;42.664;23.240;2023-05-02T04:07:00;-9700.09;;;10.16;100.00
9460;BME280;4768;42.664;23.240;2023-05-02T04:09:27;-9700.25;;;10.16;100.00
9460;BME280;4768;42.664;23.240;2023-05-02T04:11:54;-9694.41;;;9.96;100.00
9460;BME280;4768;42.664;23.240;2023-05-02T04:14:21;-9695.28;;;9.99;100.00
9460;BME280;4768;42.664;23.240;2023-05-02T04:16:49;-9699.81;;;10.15;100.00
9460;BME280;4768;42.664;23.240;2023-05-02T04:19:17;-9703.22;;;10.27;100.00
9460;BME280;4768;42.664;23.240;2023-05-02T04:21:44;-9704.63;;;10.32;100.00
9460;BME280;4768;42.664;23.240;2023-05-02T04:24:12;-9712.31;;;10.59;100.00
9460;BME280;4768;42.664;23.240;2023-05-02T04:26:39;-9708.19;;;10.44;100.00
9460;BME280;4768;42.664;23.240;2023-05-02T04:29:06;-9708.75;;;10.46;100.00
9460;BME280;4768;42.664;23.240;2023-05-02T04:31:33;-9721.81;;;10.92;100.00
9460;BME280;4768;42.664;23.240;2023-05-02T04:34:01;-9726.94;;;11.09;100.00
9460;BME280;4768;42.664;23.240;2023-05-02T04:36:29;-9746.81;;;11.79;100.00
9460;BME280;4768;42.664;23.240;2023-05-02T04:38:55;-9747.09;;;11.80;100.00
9460;BME280;4768;42.664;23.240;2023-05-02T04:41:22;-9749.94;;;11.90;100.00
9460;BME280;4768;42.664;23.240;2023-05-02T04:43:49;-9769.69;;;12.58;100.00
9460;BME280;4768;42.664;23.240;2023-05-02T04:46:16;-9778.78;;;12.90;100.00
9460;BME280;4768;42.664;23.240;2023-05-02T04:48:43;-9756.47;;;12.12;100.00
9460;BME280;4768;42.664;23.240;2023-05-02T04:51:11;-9749.94;;;11.90;100.00
9460;BME280;4768;42.664;23.240;2023-05-02T04:53:38;-9747.94;;;11.83;100.00
9460;BME280;4768;42.664;23.240;2023-05-02T04:56:05;-9746.53;;;11.78;100.00
9460;BME280;4768;42.664;23.240;2023-05-02T04:58:32;-9750.22;;;11.91;100.00
9460;BME280;4768;42.664;23.240;2023-05-02T05:01:00;-9754.34;;;12.05;100.00
9460;BME280;4768;42.664;23.240;2023-05-02T05:03:27;-9742.13;;;11.62;100.00
9460;BME280;4768;42.664;23.240;2023-05-02T05:05:55;-9752.78;;;12.00;100.00
9460;BME280;4768;42.664;23.240;2023-05-02T05:08:23;-9747.94;;;11.83;100.00
9460;BME280;4768;42.664;23.240;2023-05-02T05:10:50;-9740.28;;;11.56;100.00
9460;BME280;4768;42.664;23.240;2023-05-02T05:13:17;-9750.06;;;11.90;100.00
9460;BME280;4768;42.664;23.240;2023-05-02T05:15:44;-9740.69;;;11.57;100.00
9460;BME280;4768;42.664;23.240;2023-05-02T05:18:10;-9739.84;;;11.55;100.00
9460;BME280;4768;42.664;23.240;2023-05-02T05:20:37;-9745.38;;;11.74;100.00
9460;BME280;4768;42.664;23.240;2023-05-02T05:23:04;-9752.34;;;11.98;100.00
9460;BME280;4768;42.664;23.240;2023-05-02T05:25:32;-9752.91;;;12.00;100.00
9460;BME280;4768;42.664;23.240;2023-05-02T05:27:59;-9763.44;;;12.37;100.00
9460;BME280;4768;42.664;23.240;2023-05-02T05:30:26;-9751.34;;;11.95;100.00
9460;BME280;4768;42.664;23.240;2023-05-02T05:32:53;-9754.63;;;12.06;100.00
9460;BME280;4768;42.664;23.240;2023-05-02T05:35:19;-9761.31;;;12.29;100.00
9460;BME280;4768;42.664;23.240;2023-05-02T05:37:46;-9775.22;;;12.78;100.00
9460;BME280;4768;42.664;23.240;2023-05-02T05:40:13;-9763.28;;;12.36;100.00
9460;BME280;4768;42.664;23.240;2023-05-02T05:42:42;-9765.13;;;12.43;100.00
9460;BME280;4768;42.664;23.240;2023-05-02T05:45:10;-9756.91;;;12.14;100.00
9460;BME280;4768;42.664;23.240;2023-05-02T05:47:36;-9766.69;;;12.48;100.00
9460;BME280;4768;42.664;23.240;2023-05-02T05:50:04;-9775.66;;;12.79;100.00
9460;BME280;4768;42.664;23.240;2023-05-02T05:52:31;-9788.44;;;13.24;100.00
9460;BME280;4768;42.664;23.240;2023-05-02T05:54:58;-9793.84;;;13.43;100.00
9460;BME280;4768;42.664;23.240;2023-05-02T05:57:24;-9786.59;;;13.17;100.00
9460;BME280;4768;42.664;23.240;2023-05-02T05:59:53;-9789.44;;;13.27;100.00
9460;BME280;4768;42.664;23.240;2023-05-02T06:02:20;-9788.59;;;13.24;100.00
9460;BME280;4768;42.664;23.240;2023-05-02T06:04:47;-9798.69;;;13.59;100.00
9460;BME280;4768;42.664;23.240;2023-05-02T06:07:13;-9781.34;;;12.99;100.00
9460;BME280;4768;42.664;23.240;2023-05-02T06:09:40;-9796.69;;;13.52;100.00
9460;BME280;4768;42.664;23.240;2023-05-02T06:12:07;-9806.94;;;13.88;100.00
9460;BME280;4768;42.664;23.240;2023-05-02T06:14:34;-9806.53;;;13.87;100.00
9460;BME280;4768;42.664;23.240;2023-05-02T06:17:02;-9789.72;;;13.28;100.00
9460;BME280;4768;42.664;23.240;2023-05-02T06:19:28;-9792.28;;;13.37;100.00
9460;BME280;4768;42.664;23.240;2023-05-02T06:21:55;-9800.81;;;13.67;100.00
9460;BME280;4768;42.664;23.240;2023-05-02T06:24:22;-9794.84;;;13.46;100.00
9460;BME280;4768;42.664;23.240;2023-05-02T06:26:48;-9790.03;;;13.29;100.00
9460;BME280;4768;42.664;23.240;2023-05-02T06:29:16;-9796.28;;;13.51;100.00
9460;BME280;4768;42.664;23.240;2023-05-02T06:31:42;-9793.00;;;13.40;100.00
9460;BME280;4768;42.664;23.240;2023-05-02T06:34:10;-9795.72;;;13.49;100.00
9460;BME280;4768;42.664;23.240;2023-05-02T06:36:37;-9796.00;;;13.50;100.00
9460;BME280;4768;42.664;23.240;2023-05-02T06:39:04;-9796.13;;;13.51;100.00
9460;BME280;4768;42.664;23.240;2023-05-02T06:41:31;-9801.69;;;13.70;100.00
9460;BME280;4768;42.664;23.240;2023-05-02T06:43:58;-9798.69;;;13.59;100.00
9460;BME280;4768;42.664;23.240;2023-05-02T06:46:27;-9814.91;;;14.16;100.00
9460;BME280;4768;42.664;23.240;2023-05-02T06:48:55;-9812.22;;;14.06;100.00
9460;BME280;4768;42.664;23.240;2023-05-02T06:51:23;-9819.31;;;14.31;100.00
9460;BME280;4768;42.664;23.240;2023-05-02T06:53:50;-9815.47;;;14.18;100.00
9460;BME280;4768;42.664;23.240;2023-05-02T06:56:17;-9823.88;;;14.47;100.00
9460;BME280;4768;42.664;23.240;2023-05-02T06:58:43;-9824.16;;;14.48;100.00
9460;BME280;4768;42.664;23.240;2023-05-02T07:01:10;3600.41;;;14.74;100.00
9460;BME280;4768;42.664;23.240;2023-05-02T07:03:37;21227.34;;;13.88;100.00
9460;BME280;4768;42.664;23.240;2023-05-02T07:06:04;21941.69;;;14.82;100.00
9460;BME280;4768;42.664;23.240;2023-05-02T07:08:32;43195.44;;;15.12;100.00
9460;BME280;4768;42.664;23.240;2023-05-02T07:10:59;43856.44;;;14.48;100.00
9460;BME280;4768;42.664;23.240;2023-05-02T07:13:25;48764.75;;;14.73;100.00
9460;BME280;4768;42.664;23.240;2023-05-02T07:15:52;62122.09;;;15.18;100.00
9460;BME280;4768;42.664;23.240;2023-05-02T07:18:19;67990.03;;;14.05;100.00
9460;BME280;4768;42.664;23.240;2023-05-02T07:20:46;53947.06;;;13.82;100.00
9460;BME280;4768;42.664;23.240;2023-05-02T07:23:13;59974.34;;;14.71;100.00
9460;BME280;4768;42.664;23.240;2023-05-02T07:25:41;83872.13;;;14.32;100.00
9460;BME280;4768;42.664;23.240;2023-05-02T07:28:08;88825.75;;;14.37;100.00
9460;BME280;4768;42.664;23.240;2023-05-02T07:30:35;97035.22;;;14.81;100.00
9460;BME280;4768;42.664;23.240;2023-05-02T07:33:01;115866.78;;;14.68;100.00
9460;BME280;4768;42.664;23.240;2023-05-02T07:35:28;130157.88;;;14.67;100.00
9460;BME280;4768;42.664;23.240;2023-05-02T07:37:55;131317.78;;;15.09;100.00
9460;BME280;4768;42.664;23.240;2023-05-02T07:40:22;157948.22;;;15.12;100.00
9460;BME280;4768;42.664;23.240;2023-05-02T07:42:50;144581.03;;;14.98;100.00
9460;BME280;4768;42.664;23.240;2023-05-02T07:45:17;170958.94;;;15.08;100.00
9460;BME280;4768;42.664;23.240;2023-05-02T07:47:44;171223.72;;;16.06;100.00
9460;BME280;4768;42.664;23.240;2023-05-02T07:50:11;171171.56;;;15.87;100.00
9460;BME280;4768;42.664;23.240;2023-05-02T07:52:37;171120.75;;;15.68;100.00
9460;BME280;4768;42.664;23.240;2023-05-02T07:55:05;170974.97;;;15.14;100.00
9460;BME280;4768;42.664;23.240;2023-05-02T07:57:32;171162.19;;;15.83;100.00
9460;BME280;4768;42.664;23.240;2023-05-02T08:00:00;171088.66;;;15.56;100.00
9460;BME280;4768;42.664;23.240;2023-05-02T08:02:27;171080.63;;;15.53;100.00
9460;BME280;4768;42.664;23.240;2023-05-02T08:04:54;171425.72;;;16.81;100.00
9460;BME280;4768;42.664;23.240;2023-05-02T08:07:21;171445.78;;;16.88;100.00
9460;BME280;4768;42.664;23.240;2023-05-02T08:09:47;171373.56;;;16.61;100.00
9460;BME280;4768;42.664;23.240;2023-05-02T08:12:14;171538.22;;;17.22;100.00
9460;BME280;4768;42.664;23.240;2023-05-02T08:14:41;171429.72;;;16.82;100.00
9460;BME280;4768;42.664;23.240;2023-05-02T08:17:09;171190.25;;;15.94;100.00
9460;BME280;4768;42.664;23.240;2023-05-02T08:19:36;171267.91;;;16.22;100.00
9460;BME280;4768;42.664;23.240;2023-05-02T08:22:02;171326.72;;;16.44;100.00
9460;BME280;4768;42.664;23.240;2023-05-02T08:24:29;171404.34;;;16.73;100.00
9460;BME280;4768;42.664;23.240;2023-05-02T08:26:56;171124.75;;;15.69;100.00
9460;BME280;4768;42.664;23.240;2023-05-02T08:29:23;171370.91;;;16.60;100.00
9460;BME280;4768;42.664;23.240;2023-05-02T08:31:50;171293.28;;;16.32;100.00
9460;BME280;4768;42.664;23.240;2023-05-02T08:34:18;171585.03;;;17.40;100.00
9460;BME280;4768;42.664;23.240;2023-05-02T08:36:45;171102.00;;;15.61;100.00
9460;BME280;4768;42.664;23.240;2023-05-02T08:39:12;171155.47;;;15.81;100.00
9460;BME280;4768;42.664;23.240;2023-05-02T08:41:39;171223.72;;;16.06;100.00
9460;BME280;4768;42.664;23.240;2023-05-02T08:44:06;171156.84;;;15.81;100.00
9460;BME280;4768;42.664;23.240;2023-05-02T08:46:34;171229.06;;;16.08;100.00
9460;BME280;4768;42.664;23.240;2023-05-02T08:49:02;171200.97;;;15.97;100.00
9460;BME280;4768;42.664;23.240;2023-05-02T08:51:30;171283.94;;;16.28;100.00
9460;BME280;4768;42.664;23.240;2023-05-02T08:53:58;171206.28;;;15.99;100.00
9460;BME280;4768;42.664;23.240;2023-05-02T08:56:27;171287.97;;;16.30;100.00
9460;BME280;4768;42.664;23.240;2023-05-02T08:58:54;171231.75;;;16.09;100.00
9460;BME280;4768;42.664;23.240;2023-05-02T09:01:22;171259.81;;;16.19;100.00
9460;BME280;4768;42.664;23.240;2023-05-02T09:03:49;171258.44;;;16.19;100.00
9460;BME280;4768;42.664;23.240;2023-05-02T09:06:17;171266.47;;;16.22;100.00
9460;BME280;4768;42.664;23.240;2023-05-02T09:08:47;171366.91;;;16.59;100.00
9460;BME280;4768;42.664;23.240;2023-05-02T09:11:14;171447.16;;;16.89;100.00
9460;BME280;4768;42.664;23.240;2023-05-02T09:13:42;171242.41;;;16.13;100.00
9460;BME280;4768;42.664;23.240;2023-05-02T09:16:11;171329.41;;;16.45;100.00
9460;BME280;4768;42.664;23.240;2023-05-02T09:18:39;171435.13;;;16.84;100.00
9460;BME280;4768;42.664;23.240;2023-05-02T09:21:08;171429.72;;;16.82;100.00
9460;BME280;4768;42.664;23.240;2023-05-02T09:23:37;171451.19;;;16.90;100.00
9460;BME280;4768;42.664;23.240;2023-05-02T09:26:13;171357.50;;;16.55;100.00
9460;BME280;4768;42.664;23.240;2023-05-02T09:28:42;171380.25;;;16.64;100.00
9460;BME280;4768;42.664;23.240;2023-05-02T09:31:11;171518.09;;;17.15;100.00
9460;BME280;4768;42.664;23.240;2023-05-02T09:33:38;171436.44;;;16.85;100.00
9460;BME280;4768;42.664;23.240;2023-05-02T09:36:06;171392.28;;;16.68;100.00
9460;BME280;4768;42.664;23.240;2023-05-02T09:38:33;171362.88;;;16.57;100.00
9460;BME280;4768;42.664;23.240;2023-05-02T09:41:00;171372.22;;;16.61;100.00
9460;BME280;4768;42.664;23.240;2023-05-02T09:43:29;171449.81;;;16.90;100.00
9460;BME280;4768;42.664;23.240;2023-05-02T09:45:57;171342.81;;;16.50;100.00
9460;BME280;4768;42.664;23.240;2023-05-02T09:48:25;171403.00;;;16.72;100.00
9460;BME280;4768;42.664;23.240;2023-05-02T09:50:52;171520.75;;;17.16;100.00
9460;BME280;4768;42.664;23.240;2023-05-02T09:53:19;171559.59;;;17.30;100.00
9460;BME280;4768;42.664;23.240;2023-05-02T09:55:46;171594.44;;;17.43;100.00
9460;BME280;4768;42.664;23.240;2023-05-02T09:58:19;171514.09;;;17.13;100.00
9460;BME280;4768;42.664;23.240;2023-05-02T10:00:49;171635.91;;;17.58;100.00
9460;BME280;4768;42.664;23.240;2023-05-02T10:03:17;171564.94;;;17.32;100.00
9460;BME280;4768;42.664;23.240;2023-05-02T10:05:45;171629.19;;;17.56;100.00
9460;BME280;4768;42.664;23.240;2023-05-02T10:08:13;171603.78;;;17.46;100.00
9460;BME280;4768;42.664;23.240;2023-05-02T10:10:44;171701.53;;;17.83;100.00
9460;BME280;4768;42.664;23.240;2023-05-02T10:13:12;171721.59;;;17.90;100.00
9460;BME280;4768;42.664;23.240;2023-05-02T10:15:42;171815.34;;;18.25;100.00
9460;BME280;4768;42.664;23.240;2023-05-02T10:18:18;171733.66;;;17.94;100.00
9460;BME280;4768;42.664;23.240;2023-05-02T10:20:50;171819.38;;;18.26;100.00
9460;BME280;4768;42.664;23.240;2023-05-02T10:23:20;171702.84;;;17.83;100.00
9460;BME280;4768;42.664;23.240;2023-05-02T10:25:48;171855.53;;;18.40;100.00
9460;BME280;4768;42.664;23.240;2023-05-02T10:28:14;171828.72;;;18.30;100.00
9460;BME280;4768;42.664;23.240;2023-05-02T10:30:42;171939.91;;;18.71;100.00
9460;BME280;4768;42.664;23.240;2023-05-02T10:33:13;171654.66;;;17.65;100.00
9460;BME280;4768;42.664;23.240;2023-05-02T10:35:43;171751.03;;;18.01;100.00
9460;BME280;4768;42.664;23.240;2023-05-02T10:38:11;171729.63;;;17.93;100.00
9460;BME280;4768;42.664;23.240;2023-05-02T10:40:39;171824.72;;;18.28;100.00
9460;BME280;4768;42.664;23.240;2023-05-02T10:43:07;171836.75;;;18.33;99.04
9460;BME280;4768;42.664;23.240;2023-05-02T10:45:39;171993.50;;;18.90;99.91
9460;BME280;4768;42.664;23.240;2023-05-02T10:48:14;171909.13;;;18.59;97.39
9460;BME280;4768;42.664;23.240;2023-05-02T10:50:42;171806.00;;;18.21;95.92
9460;BME280;4768;42.664;23.240;2023-05-02T10:53:24;171793.94;;;18.17;96.05
9460;BME280;4768;42.664;23.240;2023-05-02T10:56:11;171673.34;;;17.72;96.55
9460;BME280;4768;42.664;23.240;2023-05-02T10:58:38;171816.69;;;18.25;95.64
9460;BME280;4768;42.664;23.240;2023-05-02T11:01:36;171772.44;;;18.09;94.40
9460;BME280;4768;42.664;23.240;2023-05-02T11:04:11;171722.94;;;17.91;92.92
9460;BME280;4768;42.664;23.240;2023-05-02T11:09:40;171712.19;;;17.87;90.59
9460;BME280;4768;42.664;23.240;2023-05-02T11:12:07;171739.00;;;17.96;88.99
9460;BME280;4768;42.664;23.240;2023-05-02T11:14:44;171803.31;;;18.20;91.20
9460;BME280;4768;42.664;23.240;2023-05-02T11:17:15;171855.53;;;18.40;86.34
9460;BME280;4768;42.664;23.240;2023-05-02T11:22:50;171780.47;;;18.12;84.04
9460;BME280;4768;42.664;23.240;2023-05-02T11:25:28;171810.03;;;18.23;83.48
9460;BME280;4768;42.664;23.240;2023-05-02T11:27:55;171868.97;;;18.44;84.24
9460;BME280;4768;42.664;23.240;2023-05-02T11:30:36;171894.38;;;18.54;85.67
9460;BME280;4768;42.664;23.240;2023-05-02T11:33:13;171918.50;;;18.63;86.08
9460;BME280;4768;42.664;23.240;2023-05-02T11:35:42;171919.81;;;18.63;82.95
9460;BME280;4768;42.664;23.240;2023-05-02T11:38:17;171935.88;;;18.69;83.75
9460;BME280;4768;42.664;23.240;2023-05-02T11:40:56;171984.09;;;18.87;81.22
9460;BME280;4768;42.664;23.240;2023-05-02T11:43:24;172081.97;;;19.23;80.78
9460;BME280;4768;42.664;23.240;2023-05-02T11:45:52;171918.50;;;18.63;82.79
9460;BME280;4768;42.664;23.240;2023-05-02T11:48:20;171970.72;;;18.82;81.91
9460;BME280;4768;42.664;23.240;2023-05-02T11:50:48;171953.34;;;18.76;81.21
9460;BME280;4768;42.664;23.240;2023-05-02T11:53:18;172102.09;;;19.31;81.60
9460;BME280;4768;42.664;23.240;2023-05-02T11:55:48;172031.06;;;19.04;82.21
9460;BME280;4768;42.664;23.240;2023-05-02T11:58:16;171918.50;;;18.63;81.43
9460;BME280;4768;42.664;23.240;2023-05-02T12:00:44;172022.97;;;19.01;82.08
9460;BME280;4768;42.664;23.240;2023-05-02T12:03:22;171982.78;;;18.87;82.50
9460;BME280;4768;42.664;23.240;2023-05-02T12:05:50;171875.63;;;18.47;85.19
9460;BME280;4768;42.664;23.240;2023-05-02T12:08:23;171915.78;;;18.62;87.05
9460;BME280;4768;42.664;23.240;2023-05-02T12:10:52;171838.13;;;18.33;84.96
9460;BME280;4768;42.664;23.240;2023-05-02T12:13:20;171848.88;;;18.37;86.53
9460;BME280;4768;42.664;23.240;2023-05-02T12:15:48;171977.44;;;18.85;87.00
9460;BME280;4768;42.664;23.240;2023-05-02T12:18:16;171812.66;;;18.24;85.02
9460;BME280;4768;42.664;23.240;2023-05-02T12:20:44;171893.06;;;18.53;88.15
9460;BME280;4768;42.664;23.240;2023-05-02T12:23:11;171795.28;;;18.17;85.80
9460;BME280;4768;42.664;23.240;2023-05-02T12:25:40;171843.47;;;18.35;86.02
9460;BME280;4768;42.664;23.240;2023-05-02T12:28:08;171914.47;;;18.61;85.97
9460;BME280;4768;42.664;23.240;2023-05-02T12:30:37;171927.84;;;18.66;87.63
9460;BME280;4768;42.664;23.240;2023-05-02T12:33:04;171937.25;;;18.70;84.63
9460;BME280;4768;42.664;23.240;2023-05-02T12:35:32;172016.25;;;18.99;84.66
9460;BME280;4768;42.664;23.240;2023-05-02T12:38:13;172076.66;;;19.21;84.15
9460;BME280;4768;42.664;23.240;2023-05-02T12:40:49;172112.81;;;19.35;81.53
9460;BME280;4768;42.664;23.240;2023-05-02T12:43:16;172158.34;;;19.51;83.50
9460;BME280;4768;42.664;23.240;2023-05-02T12:45:43;172136.94;;;19.43;80.69
9460;BME280;4768;42.664;23.240;2023-05-02T12:48:20;171966.72;;;18.81;81.03
9460;BME280;4768;42.664;23.240;2023-05-02T12:50:46;172080.66;;;19.23;82.07
9460;BME280;4768;42.664;23.240;2023-05-02T12:53:13;172014.94;;;18.98;80.76
9460;BME280;4768;42.664;23.240;2023-05-02T12:55:40;172077.97;;;19.22;82.84
9460;BME280;4768;42.664;23.240;2023-05-02T12:58:09;172153.00;;;19.49;79.64
9460;BME280;4768;42.664;23.240;2023-05-02T13:00:38;172037.78;;;19.07;78.35
9460;BME280;4768;42.664;23.240;2023-05-02T13:03:06;172000.19;;;18.93;80.08
9460;BME280;4768;42.664;23.240;2023-05-02T13:05:33;172001.56;;;18.93;80.06
9460;BME280;4768;42.664;23.240;2023-05-02T13:08:00;172010.91;;;18.97;79.97
9460;BME280;4768;42.664;23.240;2023-05-02T13:10:27;172004.19;;;18.94;81.34
9460;BME280;4768;42.664;23.240;2023-05-02T13:12:55;172043.13;;;19.09;79.85